»·PEaware :: ABX482 KPRC-KPHX

ABX482 :: KPRC-KPHX

FLIGHT INFORMATION

Flight Status: Arrived
Operator:
Airborne Express
More flights by this operator :: More flights under this callsign
Pilot: Matthew M. (8235)
Aircraft: SAAB 340
(SF34)
More flights by this aircraft type
Origin: KPRC Love
United States
Destination: KPHX Phoenix Sky Harbor Intl
United States
More flights between these airports :: More routes between these airports
Route: PRC1 DRK COYOT4
File this flight plan on PilotEdge
Remarks: PBN / D2 DOF / 170912
Altitude:
(Current/Filed)
11,000ft
Speed:
(Current/Filed)
276kts
Departed: 12-Sep-17 02:26 PM
Arrived: 12-Sep-17 03:05 PM
Distance/Time
Traveled:
76nm/0:39
Distance/Time
To Go:
Arrived

Flight Plot

Page will automatically refresh every two minutes.

Flight plan parsing failed; only flown route is shown


Map Options




Map Legend


Flown Route
Filed Route
Departure Airport
Arrival Airport
Navaid (VOR, NDB)
Fix

Horizontal Profiles

Position Reports

Time Latitude Longitude Heading Altitude Ground
Speed
12-Sep-17 13:59 34.647931 -112.419167 317 5046ft 0kts
12-Sep-17 14:00 34.647931 -112.419167 317 5046ft 0kts
12-Sep-17 14:01 34.647931 -112.419167 317 5046ft 0kts
12-Sep-17 14:02 34.647931 -112.419167 317 5046ft 0kts
12-Sep-17 14:03 34.647931 -112.419167 317 5046ft 0kts
12-Sep-17 14:04 34.647931 -112.419167 317 5046ft 0kts
12-Sep-17 14:05 34.647931 -112.419167 317 5046ft 0kts
12-Sep-17 14:06 34.647931 -112.419167 317 5046ft 0kts
12-Sep-17 14:07 34.647931 -112.419167 317 5046ft 0kts
12-Sep-17 14:08 34.647931 -112.419167 317 5046ft 0kts
12-Sep-17 14:09 34.647931 -112.419167 317 5046ft 0kts
12-Sep-17 14:10 34.647931 -112.419167 317 5046ft 0kts
12-Sep-17 14:11 34.647931 -112.419167 317 5046ft 0kts
12-Sep-17 14:12 34.647931 -112.419167 317 5046ft 0kts
12-Sep-17 14:13 34.647931 -112.419167 317 5046ft 0kts
12-Sep-17 14:14 34.647931 -112.419167 317 5046ft 0kts
12-Sep-17 14:15 34.647931 -112.419167 317 5046ft 0kts
12-Sep-17 14:16 34.647931 -112.419167 317 5046ft 0kts
12-Sep-17 14:17 34.647931 -112.419167 317 5046ft 0kts
12-Sep-17 14:18 34.647931 -112.419167 317 5046ft 0kts
12-Sep-17 14:19 34.647931 -112.419167 317 5046ft 0kts
12-Sep-17 14:20 34.647931 -112.419167 317 5046ft 0kts
12-Sep-17 14:21 34.647931 -112.419167 317 5046ft 0kts
12-Sep-17 14:22 34.648355 -112.420034 295 5046ft 6kts
12-Sep-17 14:23 34.651055 -112.421506 40 5046ft 15kts
12-Sep-17 14:24 34.654799 -112.417544 41 5046ft 15kts
12-Sep-17 14:25 34.657467 -112.413746 76 5046ft 20kts
12-Sep-17 14:26 34.660766 -112.411691 315 5046ft 0kts
12-Sep-17 14:27 34.660766 -112.411691 315 5046ft 0kts
12-Sep-17 14:28 34.660766 -112.411691 315 5046ft 0kts
12-Sep-17 14:29 34.660034 -112.413609 222 5046ft 35kts
12-Sep-17 14:30 34.641212 -112.433526 224 5192ft 141kts
12-Sep-17 14:31 34.608755 -112.463267 215 5989ft 155kts
12-Sep-17 14:32 34.573785 -112.491609 215 7194ft 154kts
12-Sep-17 14:33 34.569777 -112.528913 346 8602ft 159kts
12-Sep-17 14:34 34.613985 -112.515679 17 9728ft 175kts
12-Sep-17 14:35 34.660174 -112.497056 17 10761ft 179kts
12-Sep-17 14:36 34.712797 -112.485981 335 10993ft 213kts
12-Sep-17 14:37 34.765261 -112.515519 26 11003ft 235kts
12-Sep-17 14:38 34.765278 -112.445549 120 10988ft 242kts
12-Sep-17 14:39 34.716378 -112.393998 154 10983ft 244kts
12-Sep-17 14:40 34.656697 -112.357503 154 10980ft 243kts
12-Sep-17 14:41 34.598055 -112.322010 154 10980ft 240kts
12-Sep-17 14:42 34.540667 -112.287184 154 10981ft 239kts
12-Sep-17 14:43 34.482310 -112.251901 154 10975ft 239kts
12-Sep-17 14:44 34.422512 -112.222761 170 10974ft 238kts
12-Sep-17 14:45 34.358356 -112.207269 169 10972ft 238kts
12-Sep-17 14:46 34.294153 -112.190771 168 10972ft 239kts
12-Sep-17 14:47 34.230190 -112.174245 168 10972ft 239kts
12-Sep-17 14:48 34.168035 -112.158196 168 11326ft 228kts
12-Sep-17 14:49 34.104591 -112.141928 167 11179ft 240kts
12-Sep-17 14:50 34.039119 -112.125015 167 11027ft 244kts
12-Sep-17 14:51 33.973979 -112.108275 167 11027ft 242kts
12-Sep-17 14:52 33.909152 -112.091643 167 11027ft 241kts
12-Sep-17 14:53 33.849434 -112.062992 150 9799ft 240kts
12-Sep-17 14:54 33.795316 -112.025399 150 9027ft 218kts
12-Sep-17 14:55 33.743759 -111.989548 150 9029ft 215kts
12-Sep-17 14:56 33.692434 -111.954123 150 7715ft 213kts
12-Sep-17 14:57 33.643213 -111.920336 150 7045ft 200kts
12-Sep-17 14:58 33.603512 -111.873985 120 6247ft 224kts
12-Sep-17 14:59 33.572676 -111.810734 120 5616ft 222kts
12-Sep-17 15:00 33.542000 -111.747720 119 5057ft 221kts
12-Sep-17 15:01 33.512600 -111.688937 119 5030ft 196kts
12-Sep-17 15:02 33.468377 -111.678625 221 5024ft 180kts
12-Sep-17 15:03 33.447494 -111.730012 249 4040ft 168kts
12-Sep-17 15:04 33.434265 -111.784336 265 3931ft 181kts
12-Sep-17 15:05 33.431323 -111.845703 266 3444ft 185kts
12-Sep-17 15:06 33.429862 -111.901040 268 2393ft 151kts
12-Sep-17 15:07 33.428834 -111.945719 270 1957ft 128kts
12-Sep-17 15:08 33.428775 -111.990557 270 1402ft 138kts
12-Sep-17 15:09 33.428875 -112.016219 291 1139ft 0kts
12-Sep-17 15:10 33.431777 -112.015673 6 1139ft 0kts
12-Sep-17 15:11 33.432893 -112.017315 269 1139ft 18kts
12-Sep-17 15:12 33.432925 -112.023766 270 1139ft 12kts
12-Sep-17 15:13 33.433995 -112.025322 119 1139ft 11kts

Navigation Log

Ident Type
Flight plan parsing failed, navigation log unavailable